Time;durP1;ratioP1;P1;durP2;ratioP2;P2;SDS_P1;SDS_P2;PMS_P1;PMS_P2;Temp;Humidity;BMP_temperature;BMP_pressure;BME280_temperature;BME280_humidity;BME280_pressure;Samples;Min_cycle;Max_cycle;Signal;HPM_P1;HPM_P2
2022/02/24 00:01:49;;;;;;;;;;;0.20;99.90;;;;;;5073148;28;19915;-72
2022/02/24 00:04:14;;;;;;;;;;;0.20;99.90;;;;;;5071479;28;20372;-73
2022/02/24 00:06:40;;;;;;;;;;;0.20;99.90;;;;;;5073126;28;19954;-74
2022/02/24 00:09:07;;;;;;;;;;;0.20;99.90;;;;;;5072791;28;19962;-74
2022/02/24 00:11:34;;;;;;;;;;;0.30;99.90;;;;;;5072924;28;19908;-73
2022/02/24 00:14:00;;;;;;;;;;;0.40;99.90;;;;;;5072728;28;19932;-73
2022/02/24 00:16:25;;;;;;;;;;;0.60;99.90;;;;;;5072708;28;20380;-74
2022/02/24 00:18:51;;;;;;;;;;;0.60;99.90;;;;;;5072744;28;19915;-74
2022/02/24 00:21:16;;;;;;;;;;;0.70;99.90;;;;;;5072697;28;20302;-74
2022/02/24 00:23:42;;;;;;;;;;;0.70;99.90;;;;;;5070563;28;19916;-74
2022/02/24 00:26:07;;;;;;;;;;;0.70;99.90;;;;;;5072522;28;20034;-74
2022/02/24 00:28:33;;;;;;;;;;;0.60;99.90;;;;;;5072616;28;19916;-75
2022/02/24 00:30:58;;;;;;;;;;;0.70;99.90;;;;;;5072471;28;19922;-74
2022/02/24 00:33:24;;;;;;;;;;;0.80;99.90;;;;;;5069363;28;19915;-74
2022/02/24 00:35:49;;;;;;;;;;;0.80;99.90;;;;;;5072558;28;19912;-74
2022/02/24 00:38:15;;;;;;;;;;;0.80;99.90;;;;;;5072390;28;19948;-74
2022/02/24 00:40:40;;;;;;;;;;;0.70;99.90;;;;;;5072391;28;19998;-74
2022/02/24 00:43:06;;;;;;;;;;;0.70;99.90;;;;;;5070742;28;19915;-74
2022/02/24 00:45:32;;;;;;;;;;;0.70;99.90;;;;;;5072280;28;19952;-74
2022/02/24 00:47:57;;;;;;;;;;;0.60;99.90;;;;;;5072205;28;20791;-74
2022/02/24 00:50:23;;;;;;;;;;;0.50;99.90;;;;;;5072274;28;19909;-73
2022/02/24 00:52:48;;;;;;;;;;;0.40;99.90;;;;;;5071506;28;20025;-73
2022/02/24 00:55:14;;;;;;;;;;;0.40;99.90;;;;;;5071509;28;19913;-74
2022/02/24 00:57:39;;;;;;;;;;;0.60;99.90;;;;;;5072055;28;19932;-74
2022/02/24 01:00:06;;;;;;;;;;;0.90;99.90;;;;;;5072073;28;20423;-74
2022/02/24 01:02:31;;;;;;;;;;;0.60;99.90;;;;;;5071563;28;19955;-74
2022/02/24 01:04:57;;;;;;;;;;;0.30;99.90;;;;;;5071291;28;20309;-73
2022/02/24 01:07:22;;;;;;;;;;;0.40;99.90;;;;;;5071772;28;19914;-74
2022/02/24 01:09:47;;;;;;;;;;;0.50;99.90;;;;;;5070625;28;19918;-74
2022/02/24 01:12:13;;;;;;;;;;;0.30;99.90;;;;;;5071734;28;19909;-74
2022/02/24 01:14:38;;;;;;;;;;;0.30;99.90;;;;;;5073489;28;19959;-76
2022/02/24 01:17:04;;;;;;;;;;;0.50;99.90;;;;;;5073677;28;19916;-74
2022/02/24 01:19:29;;;;;;;;;;;0.60;99.90;;;;;;5072812;28;19909;-74
2022/02/24 01:21:55;;;;;;;;;;;0.70;99.90;;;;;;5071656;28;19913;-73
2022/02/24 01:24:21;;;;;;;;;;;0.50;99.90;;;;;;5070811;28;20297;-74
2022/02/24 01:26:46;;;;;;;;;;;0.40;99.90;;;;;;5071457;28;19956;-74
2022/02/24 01:29:11;;;;;;;;;;;0.30;99.90;;;;;;5071155;28;20288;-74
2022/02/24 01:31:37;;;;;;;;;;;0.30;99.90;;;;;;5070097;28;19915;-74
2022/02/24 01:34:03;;;;;;;;;;;0.30;99.90;;;;;;5070965;28;19916;-74
2022/02/24 01:36:29;;;;;;;;;;;0.30;99.90;;;;;;5071424;28;20361;-74
2022/02/24 01:38:55;;;;;;;;;;;0.20;99.90;;;;;;5070199;28;20008;-75
2022/02/24 01:41:20;;;;;;;;;;;0.20;99.90;;;;;;5071450;28;20351;-75
2022/02/24 01:43:46;;;;;;;;;;;0.10;99.90;;;;;;5071043;28;19963;-74
2022/02/24 01:46:12;;;;;;;;;;;0.00;99.90;;;;;;5071353;28;19908;-74
2022/02/24 01:48:38;;;;;;;;;;;0.00;99.90;;;;;;5071293;28;20369;-74
2022/02/24 01:51:04;;;;;;;;;;;0.10;99.90;;;;;;5071353;28;19914;-74
2022/02/24 01:53:29;;;;;;;;;;;-0.10;99.90;;;;;;5073818;28;19908;-75
2022/02/24 01:55:55;;;;;;;;;;;-0.10;99.90;;;;;;5070934;28;20281;-75
2022/02/24 01:58:22;;;;;;;;;;;-0.20;99.90;;;;;;5069974;28;19913;-74
2022/02/24 02:00:47;;;;;;;;;;;0.00;99.90;;;;;;5069951;28;20323;-74
2022/02/24 02:03:13;;;;;;;;;;;-0.10;99.90;;;;;;5070942;28;19909;-75
2022/02/24 02:05:38;;;;;;;;;;;-0.20;99.90;;;;;;5071286;28;19943;-74
2022/02/24 02:08:04;;;;;;;;;;;-0.30;99.90;;;;;;5071195;28;19962;-74
2022/02/24 02:10:30;;;;;;;;;;;-0.40;99.90;;;;;;5071271;28;19908;-74
2022/02/24 02:12:55;;;;;;;;;;;-0.20;99.90;;;;;;5071066;28;19915;-74
2022/02/24 02:15:21;;;;;;;;;;;-0.30;99.90;;;;;;5074752;28;19935;-74
2022/02/24 02:17:47;;;;;;;;;;;-0.30;99.90;;;;;;5075191;28;20034;-74
2022/02/24 02:20:13;;;;;;;;;;;-0.20;99.90;;;;;;5073866;28;19909;-74
2022/02/24 02:22:38;;;;;;;;;;;0.00;99.90;;;;;;5074618;28;20003;-74
2022/02/24 02:25:06;;;;;;;;;;;0.10;99.90;;;;;;5073043;28;19999;-74
2022/02/24 02:27:32;;;;;;;;;;;0.10;99.90;;;;;;5074810;28;19908;-74
2022/02/24 02:29:57;;;;;;;;;;;0.20;99.90;;;;;;5074918;28;19915;-74
2022/02/24 02:32:23;;;;;;;;;;;0.10;99.90;;;;;;5073532;28;19908;-73
2022/02/24 02:34:49;;;;;;;;;;;-0.10;99.90;;;;;;5074518;28;19919;-74
2022/02/24 02:37:14;;;;;;;;;;;-0.10;99.90;;;;;;5074675;28;19912;-74
2022/02/24 02:39:40;;;;;;;;;;;0.10;99.90;;;;;;5074793;28;19928;-74
2022/02/24 02:42:05;;;;;;;;;;;0.30;99.90;;;;;;5074658;28;19912;-74
2022/02/24 02:44:31;;;;;;;;;;;0.40;99.90;;;;;;5074404;28;19963;-74
2022/02/24 02:46:56;;;;;;;;;;;0.40;99.90;;;;;;5074627;28;20574;-75
2022/02/24 02:49:22;;;;;;;;;;;0.50;99.90;;;;;;5074607;28;20387;-74
2022/02/24 02:51:47;;;;;;;;;;;0.60;99.90;;;;;;5074265;28;19909;-74
2022/02/24 02:54:13;;;;;;;;;;;0.60;99.90;;;;;;5072256;28;19909;-74
2022/02/24 02:56:38;;;;;;;;;;;0.70;99.90;;;;;;5074179;28;19908;-74
2022/02/24 02:59:04;;;;;;;;;;;0.70;99.90;;;;;;5074224;28;19909;-74
2022/02/24 03:01:29;;;;;;;;;;;0.80;99.90;;;;;;5074208;28;19916;-74
2022/02/24 03:03:55;;;;;;;;;;;0.90;99.90;;;;;;5074059;28;20366;-74
2022/02/24 03:06:20;;;;;;;;;;;0.90;99.90;;;;;;5074002;28;19915;-75
2022/02/24 03:08:46;;;;;;;;;;;1.00;99.90;;;;;;5073886;28;19954;-74
2022/02/24 03:11:11;;;;;;;;;;;1.10;99.90;;;;;;5072741;28;19950;-74
2022/02/24 03:13:37;;;;;;;;;;;1.20;99.90;;;;;;5073732;28;19912;-74
2022/02/24 03:16:03;;;;;;;;;;;1.30;99.90;;;;;;5074022;28;19916;-74
2022/02/24 03:18:28;;;;;;;;;;;1.40;99.90;;;;;;5073942;28;20386;-74
2022/02/24 03:20:53;;;;;;;;;;;1.40;99.90;;;;;;5074003;28;19908;-74
2022/02/24 03:23:19;;;;;;;;;;;1.40;99.90;;;;;;5073029;28;19952;-75
2022/02/24 03:25:44;;;;;;;;;;;1.30;99.90;;;;;;5073449;28;20286;-74
2022/02/24 03:28:10;;;;;;;;;;;1.30;99.90;;;;;;5073774;28;20292;-73
2022/02/24 03:30:37;;;;;;;;;;;1.30;99.90;;;;;;5073911;28;19908;-74
2022/02/24 03:33:04;;;;;;;;;;;1.10;99.90;;;;;;5073675;28;19908;-74
2022/02/24 03:35:29;;;;;;;;;;;1.00;99.90;;;;;;5073205;28;20003;-74
2022/02/24 03:37:55;;;;;;;;;;;0.90;99.90;;;;;;5073723;28;20355;-74
2022/02/24 03:40:20;;;;;;;;;;;0.80;99.90;;;;;;5073660;28;19908;-73
2022/02/24 03:42:46;;;;;;;;;;;0.80;99.90;;;;;;5073357;28;19909;-74
2022/02/24 03:45:12;;;;;;;;;;;0.70;99.90;;;;;;5073429;28;19915;-75
2022/02/24 03:47:37;;;;;;;;;;;0.90;99.90;;;;;;5073476;28;20374;-74
2022/02/24 03:50:04;;;;;;;;;;;0.70;99.90;;;;;;5073530;28;19909;-74
2022/02/24 03:52:29;;;;;;;;;;;0.80;99.90;;;;;;5073334;28;19909;-74
2022/02/24 03:54:54;;;;;;;;;;;0.80;99.90;;;;;;5076757;28;20386;-74
2022/02/24 03:57:20;;;;;;;;;;;0.90;99.90;;;;;;5073177;28;19916;-74
2022/02/24 03:59:46;;;;;;;;;;;0.90;99.90;;;;;;5073261;28;19996;-75
2022/02/24 04:02:11;;;;;;;;;;;1.00;99.90;;;;;;5073136;28;19948;-74
2022/02/24 04:04:37;;;;;;;;;;;1.40;99.90;;;;;;5072845;28;19915;-73
2022/02/24 04:07:03;;;;;;;;;;;1.70;99.90;;;;;;5071890;28;20076;-75
2022/02/24 04:09:29;;;;;;;;;;;1.70;99.90;;;;;;5073070;28;19909;-74
2022/02/24 04:11:55;;;;;;;;;;;1.80;99.90;;;;;;5072832;28;19914;-75
2022/02/24 04:14:21;;;;;;;;;;;1.90;99.90;;;;;;5072684;28;20369;-74
2022/02/24 04:16:46;;;;;;;;;;;1.90;99.90;;;;;;5070774;28;19924;-74
2022/02/24 04:19:12;;;;;;;;;;;1.90;99.90;;;;;;5072658;28;20015;-74
2022/02/24 04:21:37;;;;;;;;;;;1.90;99.90;;;;;;5072804;28;19934;-74
2022/02/24 04:24:03;;;;;;;;;;;2.00;99.90;;;;;;5071918;28;19956;-74
2022/02/24 04:26:29;;;;;;;;;;;2.40;99.90;;;;;;5072441;28;19909;-74
2022/02/24 04:28:54;;;;;;;;;;;2.50;99.90;;;;;;5072950;28;19920;-74
2022/02/24 04:31:20;;;;;;;;;;;2.60;99.90;;;;;;5072521;28;19942;-74
2022/02/24 04:33:45;;;;;;;;;;;2.60;99.90;;;;;;5072216;28;19912;-74
2022/02/24 04:36:11;;;;;;;;;;;2.90;99.90;;;;;;5067199;28;20046;-74
2022/02/24 04:38:36;;;;;;;;;;;3.10;99.90;;;;;;5072294;28;19909;-74
2022/02/24 04:41:02;;;;;;;;;;;3.20;99.90;;;;;;5072390;28;19908;-74
2022/02/24 04:43:27;;;;;;;;;;;3.30;99.90;;;;;;5072111;28;19908;-75
2022/02/24 04:45:53;;;;;;;;;;;3.30;99.90;;;;;;5072374;28;19908;-74
2022/02/24 04:48:20;;;;;;;;;;;3.30;99.90;;;;;;5072160;28;19977;-74
2022/02/24 04:50:46;;;;;;;;;;;3.30;99.90;;;;;;5070964;28;20383;-73
2022/02/24 04:53:12;;;;;;;;;;;3.20;99.90;;;;;;5071910;28;19908;-75
2022/02/24 04:55:37;;;;;;;;;;;3.10;99.90;;;;;;5072128;28;20617;-74
2022/02/24 04:58:03;;;;;;;;;;;2.90;99.90;;;;;;5072036;28;20368;-74
2022/02/24 05:00:28;;;;;;;;;;;2.70;99.90;;;;;;5070849;28;19915;-74
2022/02/24 05:02:54;;;;;;;;;;;2.60;99.90;;;;;;5071312;28;20353;-74
2022/02/24 05:05:19;;;;;;;;;;;2.40;99.90;;;;;;5065518;28;20018;-75
2022/02/24 05:07:45;;;;;;;;;;;2.30;99.90;;;;;;5071576;28;19920;-74
2022/02/24 05:10:10;;;;;;;;;;;2.20;99.90;;;;;;5071760;28;19909;-73
2022/02/24 05:12:36;;;;;;;;;;;2.40;99.90;;;;;;5071761;28;19916;-74
2022/02/24 05:15:02;;;;;;;;;;;2.60;99.90;;;;;;5065582;28;19920;-74
2022/02/24 05:17:27;;;;;;;;;;;2.40;99.90;;;;;;5071303;28;20323;-74
2022/02/24 05:19:53;;;;;;;;;;;2.20;99.90;;;;;;5070495;28;19912;-74
2022/02/24 05:22:18;;;;;;;;;;;2.40;99.90;;;;;;5070489;28;19908;-74
2022/02/24 05:24:44;;;;;;;;;;;2.50;99.90;;;;;;5070190;28;19955;-74
2022/02/24 05:27:09;;;;;;;;;;;2.60;99.90;;;;;;5071679;28;19951;-74
2022/02/24 05:29:35;;;;;;;;;;;2.50;99.90;;;;;;5070728;28;19912;-73
2022/02/24 05:32:00;;;;;;;;;;;2.50;99.90;;;;;;5070109;28;19947;-74
2022/02/24 05:34:26;;;;;;;;;;;2.50;99.90;;;;;;5068587;28;20335;-75
2022/02/24 05:36:52;;;;;;;;;;;2.60;99.90;;;;;;5071070;28;19912;-74
2022/02/24 05:39:17;;;;;;;;;;;2.50;99.90;;;;;;5071520;28;19917;-74
2022/02/24 05:41:43;;;;;;;;;;;2.50;99.90;;;;;;5071334;28;19931;-74
2022/02/24 05:44:09;;;;;;;;;;;2.50;99.90;;;;;;5071287;28;19916;-75
2022/02/24 05:46:34;;;;;;;;;;;2.80;99.90;;;;;;5071442;28;19916;-74
2022/02/24 05:49:00;;;;;;;;;;;2.60;99.90;;;;;;5070478;28;20109;-74
2022/02/24 05:51:25;;;;;;;;;;;2.60;99.90;;;;;;5071357;28;19916;-74
2022/02/24 05:53:51;;;;;;;;;;;2.40;99.90;;;;;;5071076;28;20007;-75
2022/02/24 05:56:16;;;;;;;;;;;2.20;99.90;;;;;;5071277;28;19913;-74
2022/02/24 05:58:42;;;;;;;;;;;2.20;99.90;;;;;;5071264;28;19908;-74
2022/02/24 06:01:09;;;;;;;;;;;2.20;99.90;;;;;;5069939;28;19909;-73
2022/02/24 06:03:35;;;;;;;;;;;2.10;99.90;;;;;;5069660;28;19912;-74
2022/02/24 06:06:01;;;;;;;;;;;2.10;99.90;;;;;;5062303;28;19917;-74
2022/02/24 06:08:26;;;;;;;;;;;2.00;99.90;;;;;;5070735;28;20372;-74
2022/02/24 06:10:52;;;;;;;;;;;2.30;99.90;;;;;;5070028;28;19913;-74
2022/02/24 06:13:18;;;;;;;;;;;2.20;99.90;;;;;;5065380;28;20351;-75
2022/02/24 06:15:43;;;;;;;;;;;2.20;99.90;;;;;;5070840;28;19920;-73
2022/02/24 06:18:09;;;;;;;;;;;2.20;99.90;;;;;;5071280;28;19908;-75
2022/02/24 06:20:35;;;;;;;;;;;2.40;99.90;;;;;;5071306;28;19908;-74
2022/02/24 06:23:01;;;;;;;;;;;2.40;99.90;;;;;;5071055;28;19915;-74
2022/02/24 06:25:26;;;;;;;;;;;2.30;99.90;;;;;;5070733;28;20007;-74
2022/02/24 06:27:52;;;;;;;;;;;2.40;99.90;;;;;;5072897;28;19931;-74
2022/02/24 06:30:17;;;;;;;;;;;2.40;99.90;;;;;;5071205;28;19913;-74
2022/02/24 06:32:43;;;;;;;;;;;2.50;99.90;;;;;;5069549;28;19982;-75
2022/02/24 06:35:09;;;;;;;;;;;2.50;99.90;;;;;;5063344;28;19912;-75
2022/02/24 06:37:35;;;;;;;;;;;2.40;99.90;;;;;;5070728;28;19915;-74
2022/02/24 06:40:00;;;;;;;;;;;2.80;99.90;;;;;;5070907;28;19995;-74
2022/02/24 06:42:26;;;;;;;;;;;2.90;99.90;;;;;;5070860;28;20250;-74
2022/02/24 06:44:51;;;;;;;;;;;3.10;99.90;;;;;;5070526;28;19915;-74
2022/02/24 06:47:17;;;;;;;;;;;3.30;99.90;;;;;;5070688;28;19913;-74
2022/02/24 06:49:43;;;;;;;;;;;3.30;99.90;;;;;;5070930;28;19918;-74
2022/02/24 06:52:08;;;;;;;;;;;3.50;99.90;;;;;;5070759;28;19908;-74
2022/02/24 06:54:34;;;;;;;;;;;3.50;99.90;;;;;;5070349;28;19908;-74
2022/02/24 06:57:00;;;;;;;;;;;3.80;99.90;;;;;;5070532;28;19915;-75
2022/02/24 06:59:30;;;;;;;;;;;3.90;99.90;;;;;;5071489;28;19962;-74
2022/02/24 07:01:56;;;;;;;;;;;4.00;99.90;;;;;;5074235;28;19912;-75
2022/02/24 07:04:21;;;;;;;;;;;4.00;99.90;;;;;;5071950;28;20312;-73
2022/02/24 07:06:47;;;;;;;;;;;4.00;99.90;;;;;;5070970;28;19916;-75
2022/02/24 07:09:13;;;;;;;;;;;3.90;99.90;;;;;;5073994;28;20328;-75
2022/02/24 07:11:38;;;;;;;;;;;3.90;99.90;;;;;;5074068;28;19915;-75
2022/02/24 07:14:04;;;;;;;;;;;4.10;99.90;;;;;;5067251;28;19909;-75
2022/02/24 07:16:30;;;;;;;;;;;4.10;99.90;;;;;;5073613;28;19916;-73
2022/02/24 07:18:55;;;;;;;;;;;4.20;99.90;;;;;;5073923;28;19913;-75
2022/02/24 07:21:21;;;;;;;;;;;4.30;99.90;;;;;;5073910;28;19931;-75
2022/02/24 07:23:47;;;;;;;;;;;4.30;99.90;;;;;;5074628;28;19908;-75
2022/02/24 07:26:12;;;;;;;;;;;4.20;99.90;;;;;;5072642;28;19908;-74
2022/02/24 07:28:38;;;;;;;;;;;4.30;99.90;;;;;;5073604;28;20329;-74
2022/02/24 07:31:04;;;;;;;;;;;4.20;99.90;;;;;;5067751;28;19915;-75
2022/02/24 07:33:29;;;;;;;;;;;4.20;99.90;;;;;;5062227;28;19908;-75
2022/02/24 07:35:55;;;;;;;;;;;4.30;99.90;;;;;;5068835;28;19978;-75
2022/02/24 07:38:20;;;;;;;;;;;4.30;99.90;;;;;;5070885;28;19913;-74
2022/02/24 07:40:46;;;;;;;;;;;4.30;99.90;;;;;;5072161;28;19912;-75
2022/02/24 07:43:11;;;;;;;;;;;4.40;99.90;;;;;;5072320;28;19912;-75
2022/02/24 07:45:37;;;;;;;;;;;4.50;99.90;;;;;;5067782;28;20372;-74
2022/02/24 07:48:02;;;;;;;;;;;4.70;99.90;;;;;;5072331;28;20011;-74
2022/02/24 07:50:28;;;;;;;;;;;4.60;99.90;;;;;;5073087;28;19908;-75
2022/02/24 07:52:53;;;;;;;;;;;4.80;99.90;;;;;;5076106;28;19992;-75
2022/02/24 07:55:19;;;;;;;;;;;5.00;99.90;;;;;;5072754;28;19912;-75
2022/02/24 07:57:44;;;;;;;;;;;5.10;99.90;;;;;;5064861;28;20094;-74
2022/02/24 08:00:15;;;;;;;;;;;5.20;99.90;;;;;;5074057;28;20362;-75
2022/02/24 08:02:41;;;;;;;;;;;5.30;99.90;;;;;;5063301;28;20284;-75
2022/02/24 08:05:07;;;;;;;;;;;5.40;99.90;;;;;;5067508;28;20353;-75
2022/02/24 08:07:33;;;;;;;;;;;5.50;99.90;;;;;;5068558;28;19934;-74
2022/02/24 08:09:58;;;;;;;;;;;5.50;99.90;;;;;;5072070;28;20375;-74
2022/02/24 08:12:39;;;;;;;;;;;5.60;99.90;;;;;;5071964;28;19913;-74
2022/02/24 08:15:15;;;;;;;;;;;5.70;99.90;;;;;;5066148;28;20314;-75
2022/02/24 08:17:41;;;;;;;;;;;5.80;99.90;;;;;;5070298;28;20202;-75
2022/02/24 08:20:07;;;;;;;;;;;5.90;99.90;;;;;;5071557;28;19908;-75
2022/02/24 08:22:34;;;;;;;;;;;6.10;99.90;;;;;;5072135;28;19981;-74
2022/02/24 08:24:59;;;;;;;;;;;6.30;99.90;;;;;;5070564;28;19995;-74
2022/02/24 08:27:25;;;;;;;;;;;6.50;99.90;;;;;;5065843;28;20051;-75
2022/02/24 08:29:50;;;;;;;;;;;6.60;99.90;;;;;;5083176;28;20352;-75
2022/02/24 08:32:16;;;;;;;;;;;6.80;99.90;;;;;;5072131;28;20419;-75
2022/02/24 08:34:41;;;;;;;;;;;7.30;99.90;;;;;;5068810;28;19916;-75
2022/02/24 08:37:07;;;;;;;;;;;9.10;99.90;;;;;;5071925;28;19919;-75
2022/02/24 08:39:32;;;;;;;;;;;10.70;99.90;;;;;;5067224;28;19908;-75
2022/02/24 08:41:58;;;;;;;;;;;11.80;98.40;;;;;;5070151;28;20315;-75
2022/02/24 08:44:23;;;;;;;;;;;12.60;95.50;;;;;;5071569;28;19931;-73
2022/02/24 08:46:49;;;;;;;;;;;13.70;93.60;;;;;;5071609;28;19979;-74
2022/02/24 08:49:15;;;;;;;;;;;14.50;92.00;;;;;;5070183;28;19955;-74
2022/02/24 08:51:40;;;;;;;;;;;15.10;91.10;;;;;;5071610;28;19909;-74
2022/02/24 08:54:06;;;;;;;;;;;15.50;87.20;;;;;;5071422;28;20280;-73
2022/02/24 08:56:31;;;;;;;;;;;15.00;84.40;;;;;;5071353;28;19913;-74
2022/02/24 08:58:57;;;;;;;;;;;14.70;86.90;;;;;;5071657;28;19908;-74
2022/02/24 09:01:22;;;;;;;;;;;15.20;85.40;;;;;;5067027;28;19915;-74
2022/02/24 09:03:48;;;;;;;;;;;15.90;83.70;;;;;;5068128;28;20300;-74
2022/02/24 09:06:16;;;;;;;;;;;16.10;80.80;;;;;;5067689;28;19908;-75
2022/02/24 09:08:45;;;;;;;;;;;15.90;81.30;;;;;;5073048;28;19912;-74
2022/02/24 09:11:11;;;;;;;;;;;15.90;82.10;;;;;;5071395;28;19909;-73
2022/02/24 09:13:39;;;;;;;;;;;15.70;80.40;;;;;;5071250;28;20018;-74
2022/02/24 09:16:05;;;;;;;;;;;14.10;86.00;;;;;;5071153;28;19971;-74
2022/02/24 09:18:31;;;;;;;;;;;12.90;88.60;;;;;;5070058;28;19909;-74
2022/02/24 09:20:56;;;;;;;;;;;12.60;90.00;;;;;;5071396;28;19915;-74
2022/02/24 09:23:22;;;;;;;;;;;12.20;90.00;;;;;;5070563;28;19912;-74
2022/02/24 09:25:47;;;;;;;;;;;11.50;91.40;;;;;;5071248;28;19912;-74
2022/02/24 09:28:13;;;;;;;;;;;12.50;90.90;;;;;;5071068;28;20281;-73
2022/02/24 09:30:39;;;;;;;;;;;12.00;90.30;;;;;;5071380;28;19963;-74
2022/02/24 09:33:05;;;;;;;;;;;11.50;91.80;;;;;;5070882;28;20007;-73
2022/02/24 09:35:30;;;;;;;;;;;11.30;91.80;;;;;;5065607;28;19960;-74
2022/02/24 09:37:56;;;;;;;;;;;11.50;91.60;;;;;;5065229;28;20396;-74
2022/02/24 09:40:22;;;;;;;;;;;11.90;91.40;;;;;;5069127;28;20388;-74
2022/02/24 09:42:48;;;;;;;;;;;12.60;90.50;;;;;;5059170;28;19916;-74
2022/02/24 09:45:13;;;;;;;;;;;12.80;90.30;;;;;;5069713;28;20043;-74
2022/02/24 09:47:39;;;;;;;;;;;12.30;90.30;;;;;;5070838;28;20390;-74
2022/02/24 09:50:06;;;;;;;;;;;11.70;90.50;;;;;;5070946;28;20007;-75
2022/02/24 09:52:31;;;;;;;;;;;13.00;90.80;;;;;;5069374;28;19909;-75
2022/02/24 09:54:57;;;;;;;;;;;13.80;88.10;;;;;;5069857;28;19917;-75
2022/02/24 09:57:22;;;;;;;;;;;12.70;89.90;;;;;;5068747;28;19913;-74
2022/02/24 09:59:48;;;;;;;;;;;12.50;90.60;;;;;;5066832;28;19912;-75
2022/02/24 10:02:15;;;;;;;;;;;13.20;89.90;;;;;;5063053;28;20003;-75
2022/02/24 10:04:59;;;;;;;;;;;14.80;85.30;;;;;;5066012;28;20415;-74
2022/02/24 10:07:25;;;;;;;;;;;15.10;83.70;;;;;;5066459;28;19908;-75
2022/02/24 10:09:51;;;;;;;;;;;17.20;79.80;;;;;;5062908;28;19995;-74
2022/02/24 10:12:16;;;;;;;;;;;18.60;76.30;;;;;;5068866;28;20007;-75
2022/02/24 10:14:42;;;;;;;;;;;19.80;73.40;;;;;;5067325;28;19913;-75
2022/02/24 10:17:07;;;;;;;;;;;18.60;72.50;;;;;;5060934;28;19923;-75
2022/02/24 10:19:39;;;;;;;;;;;19.60;70.30;;;;;;5062689;28;20019;-74
2022/02/24 10:22:09;;;;;;;;;;;19.20;70.00;;;;;;5067432;28;19920;-75
2022/02/24 10:24:34;;;;;;;;;;;17.90;71.70;;;;;;5070838;28;19909;-74
2022/02/24 10:27:15;;;;;;;;;;;17.90;72.70;;;;;;5071063;28;19909;-75
2022/02/24 10:30:01;;;;;;;;;;;19.30;69.40;;;;;;5064824;28;20373;-75
2022/02/24 10:32:37;;;;;;;;;;;18.10;72.20;;;;;;5066257;28;20218;-75
2022/02/24 10:35:21;;;;;;;;;;;18.90;70.60;;;;;;5065650;28;19998;-75
2022/02/24 10:37:53;;;;;;;;;;;19.60;69.70;;;;;;5074102;28;19909;-75
2022/02/24 10:40:19;;;;;;;;;;;18.70;70.00;;;;;;5069057;28;19999;-75
2022/02/24 10:42:44;;;;;;;;;;;18.90;70.00;;;;;;5075687;28;20405;-76
2022/02/24 10:45:13;;;;;;;;;;;18.20;69.80;;;;;;5073036;28;19908;-75
2022/02/24 10:47:59;;;;;;;;;;;17.00;72.70;;;;;;5072669;28;19908;-75
2022/02/24 10:50:43;;;;;;;;;;;15.60;76.70;;;;;;5070330;28;19908;-75
2022/02/24 10:53:08;;;;;;;;;;;16.10;74.30;;;;;;5073792;28;19992;-78
2022/02/24 10:55:51;;;;;;;;;;;16.60;75.60;;;;;;5074126;28;20472;-76
2022/02/24 10:58:17;;;;;;;;;;;16.80;74.80;;;;;;5073901;28;19915;-74
2022/02/24 11:00:42;;;;;;;;;;;17.10;74.20;;;;;;5068754;28;19908;-75
2022/02/24 11:03:08;;;;;;;;;;;17.20;75.30;;;;;;5073379;28;19909;-75
2022/02/24 11:05:35;;;;;;;;;;;15.40;77.60;;;;;;5073358;28;20019;-75
2022/02/24 11:08:01;;;;;;;;;;;15.00;80.00;;;;;;5074092;28;19909;-75
2022/02/24 11:10:26;;;;;;;;;;;14.70;79.70;;;;;;5074421;28;19959;-75
2022/02/24 11:12:52;;;;;;;;;;;14.90;80.10;;;;;;5073721;28;19954;-75
2022/02/24 11:15:17;;;;;;;;;;;15.70;77.40;;;;;;5073352;28;19917;-75
2022/02/24 11:17:43;;;;;;;;;;;15.80;77.70;;;;;;5074276;28;19912;-75
2022/02/24 11:20:09;;;;;;;;;;;16.00;71.30;;;;;;5073606;28;20415;-75
2022/02/24 11:22:34;;;;;;;;;;;15.50;74.40;;;;;;5073672;28;19908;-75
2022/02/24 11:25:00;;;;;;;;;;;15.80;73.20;;;;;;5073548;28;20414;-75
2022/02/24 11:27:33;;;;;;;;;;;17.20;70.60;;;;;;5073517;28;20432;-75
2022/02/24 11:30:05;;;;;;;;;;;16.90;69.40;;;;;;5073833;28;19999;-75
2022/02/24 11:32:31;;;;;;;;;;;16.30;69.10;;;;;;5073249;28;20292;-75
2022/02/24 11:35:15;;;;;;;;;;;15.40;73.70;;;;;;5071713;28;19912;-75
2022/02/24 11:37:41;;;;;;;;;;;16.50;72.80;;;;;;5071766;28;19916;-75
2022/02/24 11:40:10;;;;;;;;;;;17.20;68.70;;;;;;5071090;28;19908;-76
2022/02/24 11:42:37;;;;;;;;;;;17.60;67.50;;;;;;5074527;28;19916;-76
2022/02/24 11:45:25;;;;;;;;;;;18.80;66.90;;;;;;5072908;28;20007;-76
2022/02/24 11:48:14;;;;;;;;;;;19.80;64.00;;;;;;5072159;28;19948;-76
2022/02/24 11:50:40;;;;;;;;;;;18.40;64.10;;;;;;5055582;28;19916;-76
2022/02/24 11:53:07;;;;;;;;;;;16.10;69.80;;;;;;5073123;28;19912;-75
2022/02/24 11:55:43;;;;;;;;;;;14.90;72.60;;;;;;5071363;28;19919;-75
2022/02/24 11:58:27;;;;;;;;;;;14.70;73.10;;;;;;5067269;28;19909;-76
2022/02/24 12:01:11;;;;;;;;;;;14.50;74.40;;;;;;5072800;28;19915;-76
2022/02/24 12:03:50;;;;;;;;;;;14.20;74.80;;;;;;5071199;28;19935;-76
2022/02/24 12:06:16;;;;;;;;;;;13.80;76.60;;;;;;5070782;28;19909;-76
2022/02/24 12:09:02;;;;;;;;;;;13.60;76.40;;;;;;5072315;28;19915;-76
2022/02/24 12:11:28;;;;;;;;;;;13.70;77.10;;;;;;5072640;28;19954;-76
2022/02/24 12:13:53;;;;;;;;;;;13.60;77.90;;;;;;5072556;28;19909;-76
2022/02/24 12:16:22;;;;;;;;;;;13.40;76.30;;;;;;5073616;28;20423;-75
2022/02/24 12:18:48;;;;;;;;;;;13.10;76.60;;;;;;5071773;28;19908;-76
2022/02/24 12:21:47;;;;;;;;;;;13.30;76.00;;;;;;5066182;28;19909;-76
2022/02/24 12:24:14;;;;;;;;;;;13.30;74.90;;;;;;5032558;28;19908;-73
2022/02/24 12:26:47;;;;;;;;;;;13.20;75.30;;;;;;5072152;28;20372;-76
2022/02/24 12:29:37;;;;;;;;;;;12.90;73.80;;;;;;5072493;28;19908;-76
2022/02/24 12:32:03;;;;;;;;;;;13.10;74.00;;;;;;5060037;28;19920;-77
2022/02/24 12:34:29;;;;;;;;;;;12.80;73.80;;;;;;5061724;28;20002;-76
2022/02/24 12:37:07;;;;;;;;;;;12.60;74.60;;;;;;5072101;28;19957;-76
2022/02/24 12:39:39;;;;;;;;;;;12.50;74.90;;;;;;5070922;28;19909;-76
2022/02/24 12:42:05;;;;;;;;;;;12.90;75.80;;;;;;5075844;28;19915;-76
2022/02/24 12:44:31;;;;;;;;;;;12.80;74.40;;;;;;5074082;28;19954;-76
2022/02/24 12:46:57;;;;;;;;;;;12.60;74.00;;;;;;5072558;28;20007;-76
2022/02/24 12:49:23;;;;;;;;;;;12.60;75.80;;;;;;5071444;28;20487;-76
2022/02/24 12:51:54;;;;;;;;;;;12.80;75.80;;;;;;5072384;28;20006;-75
2022/02/24 12:54:20;;;;;;;;;;;12.80;75.50;;;;;;5072669;28;20001;-75
2022/02/24 12:56:45;;;;;;;;;;;12.70;76.30;;;;;;5070633;28;19981;-75
2022/02/24 12:59:11;;;;;;;;;;;12.50;76.30;;;;;;5072719;28;19916;-76
2022/02/24 13:01:40;;;;;;;;;;;12.50;77.70;;;;;;5071555;28;20022;-75
2022/02/24 13:04:11;;;;;;;;;;;12.80;77.10;;;;;;5073460;28;19909;-75
2022/02/24 13:06:39;;;;;;;;;;;12.80;77.00;;;;;;5076622;28;19909;-75
2022/02/24 13:11:59;;;;;;;;;;;12.60;77.60;;;;;;5066806;28;19997;-74
2022/02/24 13:14:25;;;;;;;;;;;12.30;78.20;;;;;;5070668;28;19957;-76
2022/02/24 13:16:53;;;;;;;;;;;12.20;78.60;;;;;;5071821;28;20015;-74
2022/02/24 13:19:19;;;;;;;;;;;12.10;79.30;;;;;;5072190;28;19916;-75
2022/02/24 13:21:45;;;;;;;;;;;12.00;80.00;;;;;;5072045;28;19930;-74
2022/02/24 13:24:10;;;;;;;;;;;12.00;79.60;;;;;;5071857;28;20365;-74
2022/02/24 13:26:43;;;;;;;;;;;11.90;80.00;;;;;;5071979;28;19919;-74
2022/02/24 13:29:09;;;;;;;;;;;11.90;80.00;;;;;;5071771;28;19944;-74
2022/02/24 13:31:35;;;;;;;;;;;11.90;79.10;;;;;;5071907;28;19916;-74
2022/02/24 13:34:14;;;;;;;;;;;11.90;78.80;;;;;;5071756;28;19913;-74
2022/02/24 13:36:40;;;;;;;;;;;11.90;80.10;;;;;;5077934;28;19952;-74
2022/02/24 13:39:05;;;;;;;;;;;11.80;79.20;;;;;;5070167;28;20012;-74
2022/02/24 13:41:31;;;;;;;;;;;11.80;80.00;;;;;;5070069;28;19919;-75
2022/02/24 13:44:00;;;;;;;;;;;11.80;80.60;;;;;;5071473;28;20367;-74
2022/02/24 13:46:52;;;;;;;;;;;11.70;79.90;;;;;;5071717;28;19962;-74
2022/02/24 13:49:18;;;;;;;;;;;11.60;80.90;;;;;;5068979;28;19912;-74
2022/02/24 13:51:44;;;;;;;;;;;11.40;80.10;;;;;;5071618;28;19959;-74
2022/02/24 13:54:11;;;;;;;;;;;11.30;80.70;;;;;;5071244;28;19958;-75
2022/02/24 13:56:41;;;;;;;;;;;11.30;81.50;;;;;;5071558;28;20258;-74
2022/02/24 13:59:07;;;;;;;;;;;11.30;82.70;;;;;;5071568;28;20277;-74
2022/02/24 14:01:35;;;;;;;;;;;11.10;81.70;;;;;;5071592;28;19909;-74
2022/02/24 14:04:01;;;;;;;;;;;11.00;81.50;;;;;;5066314;28;20254;-74
2022/02/24 14:06:27;;;;;;;;;;;10.80;82.90;;;;;;5063427;28;19954;-74
2022/02/24 14:08:53;;;;;;;;;;;10.80;82.60;;;;;;5062228;28;19913;-74
2022/02/24 14:11:20;;;;;;;;;;;10.80;82.70;;;;;;5072424;28;19908;-74
2022/02/24 14:13:46;;;;;;;;;;;10.80;82.40;;;;;;5070993;28;19912;-74
2022/02/24 14:16:12;;;;;;;;;;;10.90;82.80;;;;;;5067477;28;19917;-74
2022/02/24 14:18:38;;;;;;;;;;;11.00;83.50;;;;;;5074407;28;19944;-74
2022/02/24 14:21:04;;;;;;;;;;;11.00;82.20;;;;;;5074842;28;19908;-74
2022/02/24 14:23:30;;;;;;;;;;;11.00;83.10;;;;;;5073963;28;20308;-74
2022/02/24 14:25:56;;;;;;;;;;;11.00;82.00;;;;;;5064598;28;19913;-76